sensor_id;sensor_type;location;lat;lon;timestamp;pressure;altitude;pressure_sealevel;temperature;humidity
9009;BME280;62813;51.424;6.762;2023-02-28T00:01:26;102780.28;;;2.01;66.78
9009;BME280;62813;51.424;6.762;2023-02-28T00:03:53;102777.69;;;2.00;66.58
9009;BME280;62813;51.424;6.762;2023-02-28T00:06:20;102778.56;;;2.00;66.65
9009;BME280;62813;51.424;6.762;2023-02-28T00:08:47;102777.59;;;1.97;67.00
9009;BME280;62813;51.424;6.762;2023-02-28T00:11:15;102781.91;;;1.98;66.58
9009;BME280;62813;51.424;6.762;2023-02-28T00:13:44;102775.81;;;1.94;66.84
9009;BME280;62813;51.424;6.762;2023-02-28T00:16:20;102775.75;;;1.91;67.14
9009;BME280;62813;51.424;6.762;2023-02-28T00:18:47;102781.63;;;1.89;67.18
9009;BME280;62813;51.424;6.762;2023-02-28T00:21:14;102776.47;;;1.87;66.92
9009;BME280;62813;51.424;6.762;2023-02-28T00:23:41;102775.63;;;1.87;67.01
9009;BME280;62813;51.424;6.762;2023-02-28T00:26:08;102776.44;;;1.86;66.93
9009;BME280;62813;51.424;6.762;2023-02-28T00:28:35;102771.31;;;1.86;66.92
9009;BME280;62813;51.424;6.762;2023-02-28T00:31:02;102773.88;;;1.86;66.92
9009;BME280;62813;51.424;6.762;2023-02-28T00:33:29;102767.06;;;1.86;66.64
9009;BME280;62813;51.424;6.762;2023-02-28T00:36:07;102773.03;;;1.85;66.12
9009;BME280;62813;51.424;6.762;2023-02-28T00:38:34;102773.88;;;1.86;66.29
9009;BME280;62813;51.424;6.762;2023-02-28T00:41:01;102774.69;;;1.83;66.51
9009;BME280;62813;51.424;6.762;2023-02-28T00:43:33;102781.47;;;1.83;66.55
9009;BME280;62813;51.424;6.762;2023-02-28T00:46:00;102775.41;;;1.79;66.63
9009;BME280;62813;51.424;6.762;2023-02-28T00:48:27;102777.94;;;1.77;66.37
9009;BME280;62813;51.424;6.762;2023-02-28T00:50:54;102781.31;;;1.76;66.48
9009;BME280;62813;51.424;6.762;2023-02-28T00:53:21;102783.03;;;1.76;66.77
9009;BME280;62813;51.424;6.762;2023-02-28T00:55:49;102784.69;;;1.75;66.53
9009;BME280;62813;51.424;6.762;2023-02-28T00:58:16;102785.44;;;1.71;66.57
9009;BME280;62813;51.424;6.762;2023-02-28T01:00:42;102786.28;;;1.70;66.64
9009;BME280;62813;51.424;6.762;2023-02-28T01:03:09;102787.09;;;1.69;66.60
9009;BME280;62813;51.424;6.762;2023-02-28T01:05:36;102788.69;;;1.66;66.52
9009;BME280;62813;51.424;6.762;2023-02-28T01:08:02;102786.09;;;1.64;66.71
9009;BME280;62813;51.424;6.762;2023-02-28T01:10:31;102791.25;;;1.66;66.60
9009;BME280;62813;51.424;6.762;2023-02-28T01:12:58;102797.88;;;1.59;66.84
9009;BME280;62813;51.424;6.762;2023-02-28T01:15:24;102797.03;;;1.59;66.63
9009;BME280;62813;51.424;6.762;2023-02-28T01:17:51;102790.22;;;1.59;66.44
9009;BME280;62813;51.424;6.762;2023-02-28T01:20:18;102789.38;;;1.60;66.39
9009;BME280;62813;51.424;6.762;2023-02-28T01:22:45;102797.69;;;1.53;66.38
9009;BME280;62813;51.424;6.762;2023-02-28T01:25:12;102792.59;;;1.53;66.50
9009;BME280;62813;51.424;6.762;2023-02-28T01:27:39;102787.38;;;1.50;66.47
9009;BME280;62813;51.424;6.762;2023-02-28T01:30:07;102795.91;;;1.49;66.27
9009;BME280;62813;51.424;6.762;2023-02-28T01:32:36;102793.34;;;1.49;66.34
9009;BME280;62813;51.424;6.762;2023-02-28T01:35:03;102792.50;;;1.50;66.19
9009;BME280;62813;51.424;6.762;2023-02-28T01:37:30;102796.66;;;1.46;66.47
9009;BME280;62813;51.424;6.762;2023-02-28T01:39:56;102804.28;;;1.45;66.06
9009;BME280;62813;51.424;6.762;2023-02-28T01:42:23;102799.09;;;1.42;66.11
9009;BME280;62813;51.424;6.762;2023-02-28T01:45:14;102791.34;;;1.40;66.22
9009;BME280;62813;51.424;6.762;2023-02-28T01:47:43;102782.81;;;1.40;66.23
9009;BME280;62813;51.424;6.762;2023-02-28T01:50:23;102791.31;;;1.39;66.30
9009;BME280;62813;51.424;6.762;2023-02-28T01:52:52;102783.59;;;1.37;66.21
9009;BME280;62813;51.424;6.762;2023-02-28T01:55:20;102782.66;;;1.34;66.19
9009;BME280;62813;51.424;6.762;2023-02-28T01:57:55;102781.75;;;1.33;66.17
9009;BME280;62813;51.424;6.762;2023-02-28T02:00:24;102779.16;;;1.32;66.04
9009;BME280;62813;51.424;6.762;2023-02-28T02:02:57;102772.28;;;1.29;66.10
9009;BME280;62813;51.424;6.762;2023-02-28T02:05:30;102781.66;;;1.29;66.18
9009;BME280;62813;51.424;6.762;2023-02-28T02:08:04;102769.72;;;1.29;66.18
9009;BME280;62813;51.424;6.762;2023-02-28T02:10:50;102767.84;;;1.23;66.24
9009;BME280;62813;51.424;6.762;2023-02-28T02:33:05;102753.25;;;1.19;66.57
9009;BME280;62813;51.424;6.762;2023-02-28T02:38:25;102743.78;;;1.17;66.96
9009;BME280;62813;51.424;6.762;2023-02-28T02:41:16;102748.84;;;1.15;66.95
9009;BME280;62813;51.424;6.762;2023-02-28T02:43:50;102754.91;;;1.19;66.89
9009;BME280;62813;51.424;6.762;2023-02-28T02:46:26;102745.47;;;1.16;66.89
9009;BME280;62813;51.424;6.762;2023-02-28T02:49:00;102747.94;;;1.13;66.80
9009;BME280;62813;51.424;6.762;2023-02-28T02:51:31;102751.25;;;1.11;66.70
9009;BME280;62813;51.424;6.762;2023-02-28T02:54:07;102751.38;;;1.14;66.71
9009;BME280;62813;51.424;6.762;2023-02-28T02:56:36;102758.19;;;1.13;66.73
9009;BME280;62813;51.424;6.762;2023-02-28T02:59:08;102753.09;;;1.15;66.80
9009;BME280;62813;51.424;6.762;2023-02-28T03:01:37;102754.69;;;1.11;66.61
9009;BME280;62813;51.424;6.762;2023-02-28T03:04:09;102756.38;;;1.11;66.52
9009;BME280;62813;51.424;6.762;2023-02-28T03:06:37;102758.88;;;1.09;66.50
9009;BME280;62813;51.424;6.762;2023-02-28T03:09:04;102762.28;;;1.08;66.72
9009;BME280;62813;51.424;6.762;2023-02-28T03:11:31;102754.50;;;1.05;66.27
9009;BME280;62813;51.424;6.762;2023-02-28T03:17:12;102751.94;;;1.05;66.57
9009;BME280;62813;51.424;6.762;2023-02-28T03:28:12;102750.84;;;0.97;66.61
9009;BME280;62813;51.424;6.762;2023-02-28T03:30:45;102744.00;;;0.96;66.89
9009;BME280;62813;51.424;6.762;2023-02-28T03:33:18;102745.66;;;0.94;66.83
9009;BME280;62813;51.424;6.762;2023-02-28T03:35:58;102754.09;;;0.91;66.77
9009;BME280;62813;51.424;6.762;2023-02-28T03:38:35;102759.28;;;0.94;66.62
9009;BME280;62813;51.424;6.762;2023-02-28T03:41:44;102754.22;;;0.96;66.54
9009;BME280;62813;51.424;6.762;2023-02-28T03:44:18;102761.91;;;0.96;66.51
9009;BME280;62813;51.424;6.762;2023-02-28T03:46:56;102758.44;;;0.94;66.55
9009;BME280;62813;51.424;6.762;2023-02-28T03:49:31;102768.66;;;0.94;66.89
9009;BME280;62813;51.424;6.762;2023-02-28T03:52:02;102766.00;;;0.91;66.86
9009;BME280;62813;51.424;6.762;2023-02-28T03:54:37;102759.97;;;0.89;66.76
9009;BME280;62813;51.424;6.762;2023-02-28T03:57:11;102753.84;;;0.84;67.03
9009;BME280;62813;51.424;6.762;2023-02-28T03:59:44;102761.34;;;0.78;67.44
9009;BME280;62813;51.424;6.762;2023-02-28T04:02:12;102766.47;;;0.78;67.49
9009;BME280;62813;51.424;6.762;2023-02-28T04:04:39;102763.78;;;0.75;67.79
9009;BME280;62813;51.424;6.762;2023-02-28T04:07:11;102767.22;;;0.75;68.21
9009;BME280;62813;51.424;6.762;2023-02-28T04:09:38;102762.97;;;0.76;67.42
9009;BME280;62813;51.424;6.762;2023-02-28T04:12:08;102762.06;;;0.74;67.17
9009;BME280;62813;51.424;6.762;2023-02-28T04:14:35;102757.75;;;0.73;67.57
9009;BME280;62813;51.424;6.762;2023-02-28T04:17:01;102762.69;;;0.66;67.36
9009;BME280;62813;51.424;6.762;2023-02-28T04:19:28;102757.66;;;0.69;67.48
9009;BME280;62813;51.424;6.762;2023-02-28T04:21:55;102766.16;;;0.68;67.57
9009;BME280;62813;51.424;6.762;2023-02-28T04:24:24;102765.16;;;0.63;67.09
9009;BME280;62813;51.424;6.762;2023-02-28T04:26:53;102762.69;;;0.66;67.22
9009;BME280;62813;51.424;6.762;2023-02-28T04:29:31;102764.41;;;0.67;66.68
9009;BME280;62813;51.424;6.762;2023-02-28T04:32:01;102767.84;;;0.68;66.82
9009;BME280;62813;51.424;6.762;2023-02-28T04:34:30;102766.16;;;0.68;66.46
9009;BME280;62813;51.424;6.762;2023-02-28T04:36:57;102771.25;;;0.68;66.38
9009;BME280;62813;51.424;6.762;2023-02-28T04:39:39;102773.09;;;0.73;66.13
9009;BME280;62813;51.424;6.762;2023-02-28T04:42:06;102770.38;;;0.68;66.06
9009;BME280;62813;51.424;6.762;2023-02-28T04:44:33;102772.94;;;0.68;65.68
9009;BME280;62813;51.424;6.762;2023-02-28T04:47:00;102767.72;;;0.63;65.77
9009;BME280;62813;51.424;6.762;2023-02-28T04:49:27;102775.47;;;0.66;65.66
9009;BME280;62813;51.424;6.762;2023-02-28T04:51:53;102784.00;;;0.67;65.47
9009;BME280;62813;51.424;6.762;2023-02-28T04:54:20;102777.97;;;0.65;65.32
9009;BME280;62813;51.424;6.762;2023-02-28T04:56:47;102776.31;;;0.67;65.52
9009;BME280;62813;51.424;6.762;2023-02-28T04:59:16;102774.53;;;0.64;65.67
9009;BME280;62813;51.424;6.762;2023-02-28T05:01:47;102778.72;;;0.62;64.95
9009;BME280;62813;51.424;6.762;2023-02-28T05:04:14;102769.31;;;0.61;65.58
9009;BME280;62813;51.424;6.762;2023-02-28T05:06:41;102777.81;;;0.60;65.28
9009;BME280;62813;51.424;6.762;2023-02-28T05:09:08;102770.94;;;0.58;65.28
9009;BME280;62813;51.424;6.762;2023-02-28T05:11:37;102784.53;;;0.57;64.99
9009;BME280;62813;51.424;6.762;2023-02-28T05:14:09;102777.59;;;0.54;64.96
9009;BME280;62813;51.424;6.762;2023-02-28T05:16:37;102786.09;;;0.53;64.71
9009;BME280;62813;51.424;6.762;2023-02-28T05:19:04;102786.13;;;0.55;64.43
9009;BME280;62813;51.424;6.762;2023-02-28T05:21:34;102787.94;;;0.57;64.49
9009;BME280;62813;51.424;6.762;2023-02-28T05:24:14;102787.81;;;0.54;64.27
9009;BME280;62813;51.424;6.762;2023-02-28T05:26:42;102784.28;;;0.49;64.04
9009;BME280;62813;51.424;6.762;2023-02-28T05:29:09;102787.63;;;0.48;64.14
9009;BME280;62813;51.424;6.762;2023-02-28T05:31:37;102785.88;;;0.47;64.44
9009;BME280;62813;51.424;6.762;2023-02-28T05:34:04;102791.97;;;0.51;64.91
9009;BME280;62813;51.424;6.762;2023-02-28T05:36:31;102789.50;;;0.54;66.20
9009;BME280;62813;51.424;6.762;2023-02-28T05:38:58;102796.53;;;0.59;65.55
9009;BME280;62813;51.424;6.762;2023-02-28T05:41:25;102797.47;;;0.63;65.29
9009;BME280;62813;51.424;6.762;2023-02-28T05:43:53;102797.47;;;0.63;64.87
9009;BME280;62813;51.424;6.762;2023-02-28T05:46:19;102799.13;;;0.61;65.11
9009;BME280;62813;51.424;6.762;2023-02-28T05:48:47;102806.81;;;0.62;64.67
9009;BME280;62813;51.424;6.762;2023-02-28T05:51:14;102802.69;;;0.66;65.79
9009;BME280;62813;51.424;6.762;2023-02-28T05:53:41;102807.00;;;0.67;65.25
9009;BME280;62813;51.424;6.762;2023-02-28T05:56:07;102808.69;;;0.66;64.80
9009;BME280;62813;51.424;6.762;2023-02-28T05:58:34;102812.16;;;0.68;64.96
9009;BME280;62813;51.424;6.762;2023-02-28T06:01:30;102808.88;;;0.73;64.35
9009;BME280;62813;51.424;6.762;2023-02-28T06:03:59;102810.41;;;0.67;64.21
9009;BME280;62813;51.424;6.762;2023-02-28T06:06:27;102805.25;;;0.66;64.00
9009;BME280;62813;51.424;6.762;2023-02-28T06:08:54;102810.41;;;0.67;64.01
9009;BME280;62813;51.424;6.762;2023-02-28T06:11:22;102813.88;;;0.69;63.72
9009;BME280;62813;51.424;6.762;2023-02-28T06:13:57;102817.50;;;0.76;65.47
9009;BME280;62813;51.424;6.762;2023-02-28T06:16:24;102822.72;;;0.79;64.89
9009;BME280;62813;51.424;6.762;2023-02-28T06:18:51;102820.13;;;0.78;64.88
9009;BME280;62813;51.424;6.762;2023-02-28T06:21:18;102827.03;;;0.80;64.84
9009;BME280;62813;51.424;6.762;2023-02-28T06:23:45;102827.09;;;0.83;64.57
9009;BME280;62813;51.424;6.762;2023-02-28T06:26:12;102825.53;;;0.87;64.75
9009;BME280;62813;51.424;6.762;2023-02-28T06:28:39;102824.66;;;0.86;64.12
9009;BME280;62813;51.424;6.762;2023-02-28T06:31:14;102827.31;;;0.89;64.28
9009;BME280;62813;51.424;6.762;2023-02-28T06:33:42;102826.47;;;0.90;64.54
9009;BME280;62813;51.424;6.762;2023-02-28T06:36:10;102826.56;;;0.92;63.86
9009;BME280;62813;51.424;6.762;2023-02-28T06:38:37;102829.91;;;0.91;64.29
9009;BME280;62813;51.424;6.762;2023-02-28T06:41:04;102838.47;;;0.91;64.13
9009;BME280;62813;51.424;6.762;2023-02-28T06:43:35;102836.88;;;0.95;63.48
9009;BME280;62813;51.424;6.762;2023-02-28T06:46:04;102835.22;;;0.97;63.62
9009;BME280;62813;51.424;6.762;2023-02-28T06:48:30;102841.19;;;0.97;63.70
9009;BME280;62813;51.424;6.762;2023-02-28T06:51:04;102844.00;;;1.05;63.30
9009;BME280;62813;51.424;6.762;2023-02-28T06:53:31;102842.47;;;1.10;63.13
9009;BME280;62813;51.424;6.762;2023-02-28T06:55:59;102850.19;;;1.12;62.91
9009;BME280;62813;51.424;6.762;2023-02-28T06:58:25;102840.66;;;1.06;62.51
9009;BME280;62813;51.424;6.762;2023-02-28T07:00:52;102844.91;;;1.06;62.47
9009;BME280;62813;51.424;6.762;2023-02-28T07:03:19;102846.75;;;1.11;62.30
9009;BME280;62813;51.424;6.762;2023-02-28T07:05:46;102849.47;;;1.16;62.38
9009;BME280;62813;51.424;6.762;2023-02-28T07:08:12;102858.13;;;1.19;62.46
9009;BME280;62813;51.424;6.762;2023-02-28T07:10:40;102848.91;;;1.26;62.04
9009;BME280;62813;51.424;6.762;2023-02-28T07:13:08;102851.44;;;1.24;61.37
9009;BME280;62813;51.424;6.762;2023-02-28T07:15:36;102857.53;;;1.28;61.51
9009;BME280;62813;51.424;6.762;2023-02-28T07:18:06;102852.53;;;1.33;61.36
9009;BME280;62813;51.424;6.762;2023-02-28T07:20:33;102855.25;;;1.37;61.17
9009;BME280;62813;51.424;6.762;2023-02-28T07:23:00;102853.75;;;1.44;61.23
9009;BME280;62813;51.424;6.762;2023-02-28T07:25:28;102852.19;;;1.49;60.84
9009;BME280;62813;51.424;6.762;2023-02-28T07:27:56;102855.75;;;1.54;60.84
9009;BME280;62813;51.424;6.762;2023-02-28T07:30:22;102859.25;;;1.56;60.64
9009;BME280;62813;51.424;6.762;2023-02-28T07:32:49;102861.16;;;1.63;60.76
9009;BME280;62813;51.424;6.762;2023-02-28T07:35:15;102859.53;;;1.67;60.16
9009;BME280;62813;51.424;6.762;2023-02-28T07:37:42;102858.13;;;1.76;60.33
9009;BME280;62813;51.424;6.762;2023-02-28T07:40:10;102863.25;;;1.76;59.85
9009;BME280;62813;51.424;6.762;2023-02-28T07:42:41;102866.91;;;1.85;59.66
9009;BME280;62813;51.424;6.762;2023-02-28T07:45:09;102863.31;;;1.79;59.31
9009;BME280;62813;51.424;6.762;2023-02-28T07:47:38;102865.31;;;1.90;59.23
9009;BME280;62813;51.424;6.762;2023-02-28T07:50:07;102874.19;;;2.01;59.19
9009;BME280;62813;51.424;6.762;2023-02-28T07:52:36;102869.63;;;1.91;57.86
9009;BME280;62813;51.424;6.762;2023-02-28T07:55:04;102868.63;;;1.86;57.87
9009;BME280;62813;51.424;6.762;2023-02-28T07:57:32;102866.16;;;1.89;57.54
9009;BME280;62813;51.424;6.762;2023-02-28T08:00:05;102867.06;;;1.91;57.53
9009;BME280;62813;51.424;6.762;2023-02-28T08:02:32;102870.91;;;2.05;57.55
9009;BME280;62813;51.424;6.762;2023-02-28T08:04:59;102875.03;;;2.01;56.51
9009;BME280;62813;51.424;6.762;2023-02-28T08:07:26;102871.88;;;1.80;56.95
9009;BME280;62813;51.424;6.762;2023-02-28T08:09:53;102878.75;;;1.83;56.94
9009;BME280;62813;51.424;6.762;2023-02-28T08:12:19;102876.66;;;1.98;56.82
9009;BME280;62813;51.424;6.762;2023-02-28T08:14:46;102878.66;;;2.08;56.47
9009;BME280;62813;51.424;6.762;2023-02-28T08:17:13;102880.41;;;2.11;56.14
9009;BME280;62813;51.424;6.762;2023-02-28T08:19:39;102876.91;;;2.07;56.18
9009;BME280;62813;51.424;6.762;2023-02-28T08:22:06;102879.47;;;2.07;56.00
9009;BME280;62813;51.424;6.762;2023-02-28T08:24:32;102876.44;;;2.20;55.81
9009;BME280;62813;51.424;6.762;2023-02-28T08:26:59;102875.69;;;2.24;55.56
9009;BME280;62813;51.424;6.762;2023-02-28T08:29:26;102873.38;;;2.33;55.81
9009;BME280;62813;51.424;6.762;2023-02-28T08:31:52;102881.97;;;2.35;55.64
9009;BME280;62813;51.424;6.762;2023-02-28T08:34:19;102885.28;;;2.31;55.38
9009;BME280;62813;51.424;6.762;2023-02-28T08:36:46;102878.81;;;2.46;55.21
9009;BME280;62813;51.424;6.762;2023-02-28T08:39:12;102879.72;;;2.46;54.48
9009;BME280;62813;51.424;6.762;2023-02-28T08:41:39;102884.19;;;2.53;54.05
9009;BME280;62813;51.424;6.762;2023-02-28T08:44:05;102881.03;;;2.65;54.56
9009;BME280;62813;51.424;6.762;2023-02-28T08:46:33;102880.97;;;2.62;53.89
9009;BME280;62813;51.424;6.762;2023-02-28T08:48:59;102881.13;;;2.68;53.54
9009;BME280;62813;51.424;6.762;2023-02-28T08:51:28;102877.72;;;2.68;52.93
9009;BME280;62813;51.424;6.762;2023-02-28T08:53:59;102877.41;;;2.57;52.57
9009;BME280;62813;51.424;6.762;2023-02-28T08:56:28;102876.72;;;2.62;52.77
9009;BME280;62813;51.424;6.762;2023-02-28T08:58:56;102874.25;;;2.67;52.52
9009;BME280;62813;51.424;6.762;2023-02-28T09:01:27;102871.75;;;2.69;52.08
9009;BME280;62813;51.424;6.762;2023-02-28T09:03:56;102874.59;;;2.81;52.44
9009;BME280;62813;51.424;6.762;2023-02-28T09:06:42;102871.00;;;2.74;51.36
9009;BME280;62813;51.424;6.762;2023-02-28T09:09:10;102863.25;;;2.71;50.38
9009;BME280;62813;51.424;6.762;2023-02-28T09:11:37;102863.25;;;2.71;50.87
9009;BME280;62813;51.424;6.762;2023-02-28T09:14:04;102863.56;;;2.83;50.74
9009;BME280;62813;51.424;6.762;2023-02-28T09:16:31;102861.22;;;2.93;50.09
9009;BME280;62813;51.424;6.762;2023-02-28T09:18:59;102860.69;;;3.06;49.79
9009;BME280;62813;51.424;6.762;2023-02-28T09:21:26;102858.81;;;2.99;49.14
9009;BME280;62813;51.424;6.762;2023-02-28T09:23:53;102866.22;;;2.88;48.38
9009;BME280;62813;51.424;6.762;2023-02-28T09:26:23;102862.03;;;2.90;48.26
9009;BME280;62813;51.424;6.762;2023-02-28T09:28:50;102861.06;;;2.86;47.78
9009;BME280;62813;51.424;6.762;2023-02-28T09:31:22;102861.16;;;2.89;48.35
9009;BME280;62813;51.424;6.762;2023-02-28T09:33:50;102862.88;;;2.90;48.30
9009;BME280;62813;51.424;6.762;2023-02-28T09:36:18;102855.19;;;2.90;48.58
9009;BME280;62813;51.424;6.762;2023-02-28T09:38:45;102852.13;;;3.05;48.03
9009;BME280;62813;51.424;6.762;2023-02-28T09:41:17;102848.78;;;3.09;48.10
9009;BME280;62813;51.424;6.762;2023-02-28T09:43:50;102850.44;;;3.07;47.39
9009;BME280;62813;51.424;6.762;2023-02-28T09:49:05;102858.88;;;3.02;47.32
9009;BME280;62813;51.424;6.762;2023-02-28T09:54:23;102853.00;;;3.06;46.89
9009;BME280;62813;51.424;6.762;2023-02-28T09:56:58;102864.91;;;3.04;47.36
9009;BME280;62813;51.424;6.762;2023-02-28T10:04:58;102851.47;;;3.14;47.88
9009;BME280;62813;51.424;6.762;2023-02-28T10:13:18;102860.75;;;3.09;46.84
9009;BME280;62813;51.424;6.762;2023-02-28T10:15:51;102832.63;;;3.13;47.08
9009;BME280;62813;51.424;6.762;2023-02-28T10:18:24;102853.47;;;3.27;46.67
9009;BME280;62813;51.424;6.762;2023-02-28T10:20:53;102847.34;;;3.21;45.90
9009;BME280;62813;51.424;6.762;2023-02-28T10:23:35;102841.22;;;3.15;45.74
9009;BME280;62813;51.424;6.762;2023-02-28T10:26:12;102836.16;;;3.17;45.76
9009;BME280;62813;51.424;6.762;2023-02-28T10:28:40;102836.19;;;3.18;46.16
9009;BME280;62813;51.424;6.762;2023-02-28T10:31:14;102837.78;;;3.13;46.30
9009;BME280;62813;51.424;6.762;2023-02-28T10:33:43;102842.09;;;3.16;46.13
9009;BME280;62813;51.424;6.762;2023-02-28T10:36:18;102839.63;;;3.19;45.89
9009;BME280;62813;51.424;6.762;2023-02-28T10:38:46;102831.03;;;3.17;45.16
9009;BME280;62813;51.424;6.762;2023-02-28T10:41:27;102838.06;;;3.26;45.93
9009;BME280;62813;51.424;6.762;2023-02-28T10:44:21;102826.97;;;3.27;45.97
9009;BME280;62813;51.424;6.762;2023-02-28T10:46:49;102834.53;;;3.22;45.38
9009;BME280;62813;51.424;6.762;2023-02-28T10:49:20;102833.50;;;3.14;45.34
9009;BME280;62813;51.424;6.762;2023-02-28T10:51:52;102840.38;;;3.15;45.40
9009;BME280;62813;51.424;6.762;2023-02-28T10:54:26;102826.66;;;3.14;45.74
9009;BME280;62813;51.424;6.762;2023-02-28T10:59:41;102834.63;;;3.25;45.49
9009;BME280;62813;51.424;6.762;2023-02-28T11:02:34;102833.22;;;3.38;45.32
9009;BME280;62813;51.424;6.762;2023-02-28T11:05:09;102828.25;;;3.47;44.92
9009;BME280;62813;51.424;6.762;2023-02-28T11:08:04;102815.59;;;3.55;44.77
9009;BME280;62813;51.424;6.762;2023-02-28T11:10:32;102809.75;;;3.62;44.81
9009;BME280;62813;51.424;6.762;2023-02-28T11:13:01;102813.50;;;3.79;45.06
9009;BME280;62813;51.424;6.762;2023-02-28T11:15:33;102810.31;;;3.89;45.31
9009;BME280;62813;51.424;6.762;2023-02-28T11:18:01;102820.69;;;3.95;45.33
9009;BME280;62813;51.424;6.762;2023-02-28T11:20:31;102813.00;;;3.97;45.53
9009;BME280;62813;51.424;6.762;2023-02-28T11:23:00;102815.69;;;4.02;45.72
9009;BME280;62813;51.424;6.762;2023-02-28T11:25:37;102824.19;;;4.00;44.06
9009;BME280;62813;51.424;6.762;2023-02-28T11:28:33;102828.25;;;3.88;43.45
9009;BME280;62813;51.424;6.762;2023-02-28T11:33:50;102821.00;;;3.68;43.10
9009;BME280;62813;51.424;6.762;2023-02-28T11:36:26;102815.75;;;3.62;43.25
9009;BME280;62813;51.424;6.762;2023-02-28T11:38:58;102817.44;;;3.62;42.98
9009;BME280;62813;51.424;6.762;2023-02-28T11:44:40;102822.91;;;3.79;43.09
9009;BME280;62813;51.424;6.762;2023-02-28T11:47:38;102811.94;;;3.86;43.46
9009;BME280;62813;51.424;6.762;2023-02-28T11:50:16;102811.97;;;3.87;42.67
9009;BME280;62813;51.424;6.762;2023-02-28T11:52:52;102816.44;;;3.96;43.08
9009;BME280;62813;51.424;6.762;2023-02-28T11:55:26;102804.31;;;3.90;43.31
9009;BME280;62813;51.424;6.762;2023-02-28T11:58:14;102811.13;;;3.88;43.14
9009;BME280;62813;51.424;6.762;2023-02-28T12:09:17;102791.44;;;3.87;43.44
9009;BME280;62813;51.424;6.762;2023-02-28T12:11:55;102784.59;;;3.89;42.99
9009;BME280;62813;51.424;6.762;2023-02-28T12:20:24;102771.94;;;3.98;43.73
9009;BME280;62813;51.424;6.762;2023-02-28T12:26:17;102762.66;;;4.07;43.73
9009;BME280;62813;51.424;6.762;2023-02-28T12:28:50;102760.19;;;4.13;43.79
9009;BME280;62813;51.424;6.762;2023-02-28T12:31:20;102756.84;;;4.17;43.89
9009;BME280;62813;51.424;6.762;2023-02-28T12:34:10;102740.50;;;4.15;43.78
9009;BME280;62813;51.424;6.762;2023-02-28T12:36:39;102744.00;;;4.17;44.44
9009;BME280;62813;51.424;6.762;2023-02-28T12:39:22;102747.47;;;4.19;44.04
9009;BME280;62813;51.424;6.762;2023-02-28T12:42:05;102740.47;;;4.10;44.24
9009;BME280;62813;51.424;6.762;2023-02-28T12:47:10;102733.53;;;4.08;44.15
9009;BME280;62813;51.424;6.762;2023-02-28T12:49:46;102728.63;;;4.20;44.47
9009;BME280;62813;51.424;6.762;2023-02-28T12:52:19;102721.66;;;4.13;44.44
9009;BME280;62813;51.424;6.762;2023-02-28T13:00:15;102708.91;;;4.20;45.22
9009;BME280;62813;51.424;6.762;2023-02-28T13:05:56;102711.72;;;4.34;44.28
9009;BME280;62813;51.424;6.762;2023-02-28T13:08:49;102718.47;;;4.27;43.63
9009;BME280;62813;51.424;6.762;2023-02-28T13:14:00;102700.44;;;4.26;44.04
9009;BME280;62813;51.424;6.762;2023-02-28T13:16:27;102708.19;;;4.29;44.04
9009;BME280;62813;51.424;6.762;2023-02-28T13:19:08;102705.59;;;4.26;44.49
9009;BME280;62813;51.424;6.762;2023-02-28T13:21:43;102699.59;;;4.27;44.62
9009;BME280;62813;51.424;6.762;2023-02-28T13:29:38;102698.09;;;4.40;44.59
9009;BME280;62813;51.424;6.762;2023-02-28T13:34:47;102683.72;;;4.51;44.69
9009;BME280;62813;51.424;6.762;2023-02-28T13:37:36;102685.50;;;4.56;44.74
9009;BME280;62813;51.424;6.762;2023-02-28T13:42:47;102686.50;;;4.65;43.91
9009;BME280;62813;51.424;6.762;2023-02-28T13:45:27;102680.41;;;4.60;43.68
9009;BME280;62813;51.424;6.762;2023-02-28T13:48:00;102683.78;;;4.57;44.11
9009;BME280;62813;51.424;6.762;2023-02-28T13:50:38;102675.16;;;4.52;44.73
9009;BME280;62813;51.424;6.762;2023-02-28T14:04:01;102670.72;;;4.43;46.22
9009;BME280;62813;51.424;6.762;2023-02-28T14:06:34;102671.56;;;4.42;47.21
9009;BME280;62813;51.424;6.762;2023-02-28T14:11:40;102675.06;;;4.47;46.74
9009;BME280;62813;51.424;6.762;2023-02-28T14:14:09;102671.56;;;4.42;46.61
9009;BME280;62813;51.424;6.762;2023-02-28T14:16:39;102670.72;;;4.43;46.98
9009;BME280;62813;51.424;6.762;2023-02-28T14:19:22;102682.75;;;4.44;46.95
9009;BME280;62813;51.424;6.762;2023-02-28T14:24:46;102660.47;;;4.45;47.51
9009;BME280;62813;51.424;6.762;2023-02-28T14:35:50;102667.25;;;4.41;46.89
9009;BME280;62813;51.424;6.762;2023-02-28T14:38:33;102669.84;;;4.41;47.29
9009;BME280;62813;51.424;6.762;2023-02-28T14:41:05;102662.13;;;4.41;47.75
9009;BME280;62813;51.424;6.762;2023-02-28T14:43:33;102663.91;;;4.45;47.58
9009;BME280;62813;51.424;6.762;2023-02-28T14:46:01;102651.94;;;4.47;47.24
9009;BME280;62813;51.424;6.762;2023-02-28T14:48:30;102651.09;;;4.50;47.56
9009;BME280;62813;51.424;6.762;2023-02-28T14:50:59;102663.91;;;4.45;47.57
9009;BME280;62813;51.424;6.762;2023-02-28T14:53:29;102655.34;;;4.46;47.54
9009;BME280;62813;51.424;6.762;2023-02-28T14:55:57;102652.75;;;4.45;48.26
9009;BME280;62813;51.424;6.762;2023-02-28T14:58:27;102656.09;;;4.39;48.59
9009;BME280;62813;51.424;6.762;2023-02-28T15:00:56;102659.56;;;4.41;48.90
9009;BME280;62813;51.424;6.762;2023-02-28T15:06:03;102658.66;;;4.39;48.48
9009;BME280;62813;51.424;6.762;2023-02-28T15:08:31;102659.50;;;4.37;47.63
9009;BME280;62813;51.424;6.762;2023-02-28T15:11:05;102657.72;;;4.33;48.20
9009;BME280;62813;51.424;6.762;2023-02-28T15:16:17;102648.28;;;4.32;47.76
9009;BME280;62813;51.424;6.762;2023-02-28T15:18:51;102656.84;;;4.31;47.92
9009;BME280;62813;51.424;6.762;2023-02-28T15:21:25;102649.13;;;4.31;48.02
9009;BME280;62813;51.424;6.762;2023-02-28T15:23:58;102647.41;;;4.30;47.92
9009;BME280;62813;51.424;6.762;2023-02-28T15:26:30;102649.91;;;4.26;48.30
9009;BME280;62813;51.424;6.762;2023-02-28T15:29:05;102652.47;;;4.26;48.57
9009;BME280;62813;51.424;6.762;2023-02-28T15:31:37;102654.25;;;4.31;48.89
9009;BME280;62813;51.424;6.762;2023-02-28T15:34:29;102651.72;;;4.32;49.08
9009;BME280;62813;51.424;6.762;2023-02-28T15:40:17;102645.59;;;4.25;49.45
9009;BME280;62813;51.424;6.762;2023-02-28T15:43:05;102649.03;;;4.26;49.13
9009;BME280;62813;51.424;6.762;2023-02-28T15:45:44;102643.88;;;4.23;49.18